sensor_id;sensor_type;location;lat;lon;timestamp;P1;durP1;ratioP1;P2;durP2;ratioP2
4547;SDS011;2286;51.570;7.090;2022-07-23T00:00:10;6.57;;;6.07;;
4547;SDS011;2286;51.570;7.090;2022-07-23T00:02:37;6.97;;;5.90;;
4547;SDS011;2286;51.570;7.090;2022-07-23T00:05:04;6.90;;;5.80;;
4547;SDS011;2286;51.570;7.090;2022-07-23T00:07:31;6.57;;;5.90;;
4547;SDS011;2286;51.570;7.090;2022-07-23T00:09:59;6.67;;;6.07;;
4547;SDS011;2286;51.570;7.090;2022-07-23T00:12:26;8.20;;;6.10;;
4547;SDS011;2286;51.570;7.090;2022-07-23T00:14:53;6.50;;;5.83;;
4547;SDS011;2286;51.570;7.090;2022-07-23T00:17:20;6.70;;;6.20;;
4547;SDS011;2286;51.570;7.090;2022-07-23T00:19:46;9.97;;;6.80;;
4547;SDS011;2286;51.570;7.090;2022-07-23T00:22:13;7.53;;;6.57;;
4547;SDS011;2286;51.570;7.090;2022-07-23T00:24:40;6.60;;;6.00;;
4547;SDS011;2286;51.570;7.090;2022-07-23T00:27:08;6.43;;;5.83;;
4547;SDS011;2286;51.570;7.090;2022-07-23T00:29:35;6.93;;;6.33;;
4547;SDS011;2286;51.570;7.090;2022-07-23T00:32:02;7.37;;;6.60;;
4547;SDS011;2286;51.570;7.090;2022-07-23T00:34:30;8.13;;;5.80;;
4547;SDS011;2286;51.570;7.090;2022-07-23T00:36:57;7.50;;;6.80;;
4547;SDS011;2286;51.570;7.090;2022-07-23T00:39:24;7.03;;;6.53;;
4547;SDS011;2286;51.570;7.090;2022-07-23T00:41:50;6.80;;;6.20;;
4547;SDS011;2286;51.570;7.090;2022-07-23T00:44:20;7.40;;;6.80;;
4547;SDS011;2286;51.570;7.090;2022-07-23T00:46:49;7.13;;;6.43;;
4547;SDS011;2286;51.570;7.090;2022-07-23T00:49:19;7.33;;;6.63;;
4547;SDS011;2286;51.570;7.090;2022-07-23T00:51:46;8.13;;;7.00;;
4547;SDS011;2286;51.570;7.090;2022-07-23T00:54:13;7.57;;;6.80;;
4547;SDS011;2286;51.570;7.090;2022-07-23T00:56:41;7.17;;;6.70;;
4547;SDS011;2286;51.570;7.090;2022-07-23T00:59:09;8.27;;;6.77;;
4547;SDS011;2286;51.570;7.090;2022-07-23T01:01:38;7.77;;;7.00;;
4547;SDS011;2286;51.570;7.090;2022-07-23T01:04:06;7.80;;;7.20;;
4547;SDS011;2286;51.570;7.090;2022-07-23T01:06:34;9.93;;;7.17;;
4547;SDS011;2286;51.570;7.090;2022-07-23T01:09:03;6.77;;;6.17;;
4547;SDS011;2286;51.570;7.090;2022-07-23T01:11:31;7.90;;;7.17;;
4547;SDS011;2286;51.570;7.090;2022-07-23T01:13:58;7.80;;;7.17;;
4547;SDS011;2286;51.570;7.090;2022-07-23T01:16:25;8.00;;;7.20;;
4547;SDS011;2286;51.570;7.090;2022-07-23T01:18:53;10.80;;;7.27;;
4547;SDS011;2286;51.570;7.090;2022-07-23T01:21:20;7.30;;;6.70;;
4547;SDS011;2286;51.570;7.090;2022-07-23T01:23:49;7.77;;;7.00;;
4547;SDS011;2286;51.570;7.090;2022-07-23T01:26:16;8.63;;;7.33;;
4547;SDS011;2286;51.570;7.090;2022-07-23T01:28:43;9.33;;;8.40;;
4547;SDS011;2286;51.570;7.090;2022-07-23T01:31:10;8.60;;;7.80;;
4547;SDS011;2286;51.570;7.090;2022-07-23T01:33:37;8.63;;;7.93;;
4547;SDS011;2286;51.570;7.090;2022-07-23T01:36:04;9.20;;;8.30;;
4547;SDS011;2286;51.570;7.090;2022-07-23T01:38:31;8.20;;;7.40;;
4547;SDS011;2286;51.570;7.090;2022-07-23T01:41:00;8.70;;;7.90;;
4547;SDS011;2286;51.570;7.090;2022-07-23T01:43:27;8.80;;;8.10;;
4547;SDS011;2286;51.570;7.090;2022-07-23T01:45:54;9.40;;;8.47;;
4547;SDS011;2286;51.570;7.090;2022-07-23T01:48:21;9.40;;;7.63;;
4547;SDS011;2286;51.570;7.090;2022-07-23T01:50:47;8.63;;;7.97;;
4547;SDS011;2286;51.570;7.090;2022-07-23T01:53:14;10.80;;;8.00;;
4547;SDS011;2286;51.570;7.090;2022-07-23T01:55:41;8.27;;;7.57;;
4547;SDS011;2286;51.570;7.090;2022-07-23T01:58:10;13.33;;;8.03;;
4547;SDS011;2286;51.570;7.090;2022-07-23T02:00:37;9.13;;;7.73;;
4547;SDS011;2286;51.570;7.090;2022-07-23T02:03:04;7.90;;;7.20;;
4547;SDS011;2286;51.570;7.090;2022-07-23T02:05:31;7.90;;;7.27;;
4547;SDS011;2286;51.570;7.090;2022-07-23T02:07:58;8.73;;;7.50;;
4547;SDS011;2286;51.570;7.090;2022-07-23T02:10:25;8.70;;;8.00;;
4547;SDS011;2286;51.570;7.090;2022-07-23T02:12:52;8.43;;;7.73;;
4547;SDS011;2286;51.570;7.090;2022-07-23T02:15:20;8.37;;;7.23;;
4547;SDS011;2286;51.570;7.090;2022-07-23T02:17:47;8.60;;;7.90;;
4547;SDS011;2286;51.570;7.090;2022-07-23T02:20:14;8.70;;;8.00;;
4547;SDS011;2286;51.570;7.090;2022-07-23T02:22:42;7.90;;;7.17;;
4547;SDS011;2286;51.570;7.090;2022-07-23T02:25:08;8.73;;;7.90;;
4547;SDS011;2286;51.570;7.090;2022-07-23T02:27:35;8.90;;;8.00;;
4547;SDS011;2286;51.570;7.090;2022-07-23T02:30:03;8.90;;;8.00;;
4547;SDS011;2286;51.570;7.090;2022-07-23T02:32:32;8.70;;;7.87;;
4547;SDS011;2286;51.570;7.090;2022-07-23T02:34:59;9.10;;;8.40;;
4547;SDS011;2286;51.570;7.090;2022-07-23T02:37:26;8.73;;;7.90;;
4547;SDS011;2286;51.570;7.090;2022-07-23T02:39:53;9.90;;;8.23;;
4547;SDS011;2286;51.570;7.090;2022-07-23T02:42:20;9.90;;;9.03;;
4547;SDS011;2286;51.570;7.090;2022-07-23T02:44:48;8.83;;;7.90;;
4547;SDS011;2286;51.570;7.090;2022-07-23T02:47:15;8.47;;;7.87;;
4547;SDS011;2286;51.570;7.090;2022-07-23T02:49:44;9.50;;;8.67;;
4547;SDS011;2286;51.570;7.090;2022-07-23T02:52:11;10.10;;;9.10;;
4547;SDS011;2286;51.570;7.090;2022-07-23T02:54:37;10.20;;;9.30;;
4547;SDS011;2286;51.570;7.090;2022-07-23T02:57:04;11.17;;;10.00;;
4547;SDS011;2286;51.570;7.090;2022-07-23T02:59:31;9.70;;;8.77;;
4547;SDS011;2286;51.570;7.090;2022-07-23T03:01:58;9.40;;;8.70;;
4547;SDS011;2286;51.570;7.090;2022-07-23T03:04:26;10.33;;;9.40;;
4547;SDS011;2286;51.570;7.090;2022-07-23T03:06:54;9.50;;;8.50;;
4547;SDS011;2286;51.570;7.090;2022-07-23T03:09:21;9.70;;;8.70;;
4547;SDS011;2286;51.570;7.090;2022-07-23T03:11:48;10.57;;;9.67;;
4547;SDS011;2286;51.570;7.090;2022-07-23T03:14:15;10.17;;;9.27;;
4547;SDS011;2286;51.570;7.090;2022-07-23T03:16:42;10.57;;;8.87;;
4547;SDS011;2286;51.570;7.090;2022-07-23T03:19:09;10.83;;;9.93;;
4547;SDS011;2286;51.570;7.090;2022-07-23T03:21:36;10.00;;;9.10;;
4547;SDS011;2286;51.570;7.090;2022-07-23T03:24:07;9.80;;;8.90;;
4547;SDS011;2286;51.570;7.090;2022-07-23T03:26:34;11.03;;;10.03;;
4547;SDS011;2286;51.570;7.090;2022-07-23T03:29:01;12.00;;;10.30;;
4547;SDS011;2286;51.570;7.090;2022-07-23T03:31:29;10.30;;;9.50;;
4547;SDS011;2286;51.570;7.090;2022-07-23T03:33:56;11.50;;;10.30;;
4547;SDS011;2286;51.570;7.090;2022-07-23T03:36:24;10.07;;;9.13;;
4547;SDS011;2286;51.570;7.090;2022-07-23T03:38:51;11.50;;;10.37;;
4547;SDS011;2286;51.570;7.090;2022-07-23T03:41:20;10.97;;;9.90;;
4547;SDS011;2286;51.570;7.090;2022-07-23T03:43:47;11.90;;;10.13;;
4547;SDS011;2286;51.570;7.090;2022-07-23T03:46:14;10.50;;;9.70;;
4547;SDS011;2286;51.570;7.090;2022-07-23T03:48:41;11.67;;;10.40;;
4547;SDS011;2286;51.570;7.090;2022-07-23T03:51:07;12.53;;;10.93;;
4547;SDS011;2286;51.570;7.090;2022-07-23T03:53:34;13.20;;;11.80;;
4547;SDS011;2286;51.570;7.090;2022-07-23T03:56:01;12.10;;;10.90;;
4547;SDS011;2286;51.570;7.090;2022-07-23T03:58:30;12.40;;;11.13;;
4547;SDS011;2286;51.570;7.090;2022-07-23T04:00:57;14.17;;;11.27;;
4547;SDS011;2286;51.570;7.090;2022-07-23T04:03:24;13.73;;;12.60;;
4547;SDS011;2286;51.570;7.090;2022-07-23T04:05:50;16.30;;;14.70;;
4547;SDS011;2286;51.570;7.090;2022-07-23T04:08:17;21.80;;;20.20;;
4547;SDS011;2286;51.570;7.090;2022-07-23T04:10:44;17.63;;;16.33;;
4547;SDS011;2286;51.570;7.090;2022-07-23T04:13:11;13.77;;;12.50;;
4547;SDS011;2286;51.570;7.090;2022-07-23T04:15:39;12.13;;;11.13;;
4547;SDS011;2286;51.570;7.090;2022-07-23T04:18:06;13.20;;;12.00;;
4547;SDS011;2286;51.570;7.090;2022-07-23T04:20:33;13.43;;;12.17;;
4547;SDS011;2286;51.570;7.090;2022-07-23T04:23:00;10.37;;;9.27;;
4547;SDS011;2286;51.570;7.090;2022-07-23T04:25:27;13.03;;;11.73;;
4547;SDS011;2286;51.570;7.090;2022-07-23T04:27:54;14.20;;;12.80;;
4547;SDS011;2286;51.570;7.090;2022-07-23T04:30:21;13.47;;;12.27;;
4547;SDS011;2286;51.570;7.090;2022-07-23T04:32:49;12.43;;;11.43;;
4547;SDS011;2286;51.570;7.090;2022-07-23T04:35:16;13.90;;;12.53;;
4547;SDS011;2286;51.570;7.090;2022-07-23T04:37:43;13.73;;;12.43;;
4547;SDS011;2286;51.570;7.090;2022-07-23T04:40:10;14.50;;;12.97;;
4547;SDS011;2286;51.570;7.090;2022-07-23T04:42:38;15.37;;;12.70;;
4547;SDS011;2286;51.570;7.090;2022-07-23T04:45:05;18.40;;;13.00;;
4547;SDS011;2286;51.570;7.090;2022-07-23T04:47:33;13.80;;;12.70;;
4547;SDS011;2286;51.570;7.090;2022-07-23T04:50:01;14.40;;;13.17;;
4547;SDS011;2286;51.570;7.090;2022-07-23T04:52:29;14.93;;;13.43;;
4547;SDS011;2286;51.570;7.090;2022-07-23T04:54:56;15.00;;;13.37;;
4547;SDS011;2286;51.570;7.090;2022-07-23T04:57:22;13.63;;;11.93;;
4547;SDS011;2286;51.570;7.090;2022-07-23T04:59:49;15.00;;;13.50;;
4547;SDS011;2286;51.570;7.090;2022-07-23T05:02:16;13.80;;;12.50;;
4547;SDS011;2286;51.570;7.090;2022-07-23T05:04:43;14.87;;;13.37;;
4547;SDS011;2286;51.570;7.090;2022-07-23T05:07:12;17.50;;;14.03;;
4547;SDS011;2286;51.570;7.090;2022-07-23T05:09:39;14.80;;;13.50;;
4547;SDS011;2286;51.570;7.090;2022-07-23T05:12:06;16.93;;;13.57;;
4547;SDS011;2286;51.570;7.090;2022-07-23T05:14:33;14.90;;;13.43;;
4547;SDS011;2286;51.570;7.090;2022-07-23T05:17:00;14.20;;;12.80;;
4547;SDS011;2286;51.570;7.090;2022-07-23T05:19:27;14.73;;;13.37;;
4547;SDS011;2286;51.570;7.090;2022-07-23T05:21:54;14.27;;;13.07;;
4547;SDS011;2286;51.570;7.090;2022-07-23T05:24:23;14.60;;;13.30;;
4547;SDS011;2286;51.570;7.090;2022-07-23T05:26:49;14.37;;;12.70;;
4547;SDS011;2286;51.570;7.090;2022-07-23T05:29:16;14.47;;;13.30;;
4547;SDS011;2286;51.570;7.090;2022-07-23T05:31:43;14.40;;;13.00;;
4547;SDS011;2286;51.570;7.090;2022-07-23T05:34:10;10.53;;;9.13;;
4547;SDS011;2286;51.570;7.090;2022-07-23T05:36:37;14.03;;;12.83;;
4547;SDS011;2286;51.570;7.090;2022-07-23T05:39:04;12.90;;;11.80;;
4547;SDS011;2286;51.570;7.090;2022-07-23T05:41:33;12.67;;;11.53;;
4547;SDS011;2286;51.570;7.090;2022-07-23T05:44:00;14.97;;;13.53;;
4547;SDS011;2286;51.570;7.090;2022-07-23T05:46:27;14.50;;;12.50;;
4547;SDS011;2286;51.570;7.090;2022-07-23T05:48:54;12.23;;;11.13;;
4547;SDS011;2286;51.570;7.090;2022-07-23T05:51:21;12.50;;;11.40;;
4547;SDS011;2286;51.570;7.090;2022-07-23T05:53:48;12.63;;;11.43;;
4547;SDS011;2286;51.570;7.090;2022-07-23T05:56:16;13.37;;;12.13;;
4547;SDS011;2286;51.570;7.090;2022-07-23T05:58:45;14.20;;;12.70;;
4547;SDS011;2286;51.570;7.090;2022-07-23T06:01:12;13.87;;;12.50;;
4547;SDS011;2286;51.570;7.090;2022-07-23T06:03:39;16.33;;;13.67;;
4547;SDS011;2286;51.570;7.090;2022-07-23T06:06:06;12.60;;;11.57;;
4547;SDS011;2286;51.570;7.090;2022-07-23T06:08:33;14.47;;;13.20;;
4547;SDS011;2286;51.570;7.090;2022-07-23T06:11:00;14.00;;;12.80;;
4547;SDS011;2286;51.570;7.090;2022-07-23T06:13:27;13.53;;;12.27;;
4547;SDS011;2286;51.570;7.090;2022-07-23T06:15:55;13.30;;;12.10;;
4547;SDS011;2286;51.570;7.090;2022-07-23T06:18:22;14.13;;;12.60;;
4547;SDS011;2286;51.570;7.090;2022-07-23T06:20:50;14.73;;;13.43;;
4547;SDS011;2286;51.570;7.090;2022-07-23T06:23:17;14.60;;;13.20;;
4547;SDS011;2286;51.570;7.090;2022-07-23T06:25:43;13.47;;;12.23;;
4547;SDS011;2286;51.570;7.090;2022-07-23T06:28:10;14.40;;;12.90;;
4547;SDS011;2286;51.570;7.090;2022-07-23T06:30:37;14.40;;;12.97;;
4547;SDS011;2286;51.570;7.090;2022-07-23T06:33:06;14.23;;;13.00;;
4547;SDS011;2286;51.570;7.090;2022-07-23T06:35:33;15.23;;;13.73;;
4547;SDS011;2286;51.570;7.090;2022-07-23T06:38:00;15.63;;;14.23;;
4547;SDS011;2286;51.570;7.090;2022-07-23T06:40:27;14.17;;;12.97;;
4547;SDS011;2286;51.570;7.090;2022-07-23T06:42:54;14.83;;;13.47;;
4547;SDS011;2286;51.570;7.090;2022-07-23T06:45:21;15.20;;;13.10;;
4547;SDS011;2286;51.570;7.090;2022-07-23T06:47:48;11.83;;;10.60;;
4547;SDS011;2286;51.570;7.090;2022-07-23T06:50:16;12.33;;;11.03;;
4547;SDS011;2286;51.570;7.090;2022-07-23T06:52:43;12.57;;;11.23;;
4547;SDS011;2286;51.570;7.090;2022-07-23T06:55:10;11.27;;;10.07;;
4547;SDS011;2286;51.570;7.090;2022-07-23T06:57:37;11.80;;;10.70;;
4547;SDS011;2286;51.570;7.090;2022-07-23T07:00:05;10.90;;;9.90;;
4547;SDS011;2286;51.570;7.090;2022-07-23T07:02:32;11.70;;;10.80;;
4547;SDS011;2286;51.570;7.090;2022-07-23T07:04:59;9.90;;;9.00;;
4547;SDS011;2286;51.570;7.090;2022-07-23T07:07:28;9.67;;;8.90;;
4547;SDS011;2286;51.570;7.090;2022-07-23T07:09:55;12.10;;;9.57;;
4547;SDS011;2286;51.570;7.090;2022-07-23T07:12:22;8.53;;;7.83;;
4547;SDS011;2286;51.570;7.090;2022-07-23T07:14:49;9.40;;;8.10;;
4547;SDS011;2286;51.570;7.090;2022-07-23T07:17:16;9.33;;;8.43;;
4547;SDS011;2286;51.570;7.090;2022-07-23T07:19:42;9.47;;;8.73;;
4547;SDS011;2286;51.570;7.090;2022-07-23T07:22:09;8.77;;;7.97;;
4547;SDS011;2286;51.570;7.090;2022-07-23T07:24:38;9.57;;;8.57;;
4547;SDS011;2286;51.570;7.090;2022-07-23T07:27:04;9.83;;;8.77;;
4547;SDS011;2286;51.570;7.090;2022-07-23T07:29:31;9.27;;;8.47;;
4547;SDS011;2286;51.570;7.090;2022-07-23T07:31:58;9.73;;;8.80;;
4547;SDS011;2286;51.570;7.090;2022-07-23T07:34:25;9.70;;;8.70;;
4547;SDS011;2286;51.570;7.090;2022-07-23T07:36:52;10.47;;;9.57;;
4547;SDS011;2286;51.570;7.090;2022-07-23T07:39:19;9.50;;;8.63;;
4547;SDS011;2286;51.570;7.090;2022-07-23T07:41:47;8.33;;;7.53;;
4547;SDS011;2286;51.570;7.090;2022-07-23T07:44:14;7.80;;;7.20;;
4547;SDS011;2286;51.570;7.090;2022-07-23T07:46:41;8.83;;;8.03;;
4547;SDS011;2286;51.570;7.090;2022-07-23T07:49:08;8.00;;;6.97;;
4547;SDS011;2286;51.570;7.090;2022-07-23T07:51:35;7.60;;;6.90;;
4547;SDS011;2286;51.570;7.090;2022-07-23T07:54:02;6.80;;;5.47;;
4547;SDS011;2286;51.570;7.090;2022-07-23T07:56:29;5.73;;;5.23;;
4547;SDS011;2286;51.570;7.090;2022-07-23T07:58:57;8.23;;;5.60;;
4547;SDS011;2286;51.570;7.090;2022-07-23T08:01:26;6.47;;;5.77;;
4547;SDS011;2286;51.570;7.090;2022-07-23T08:03:53;6.73;;;5.90;;
4547;SDS011;2286;51.570;7.090;2022-07-23T08:06:19;6.40;;;5.57;;
4547;SDS011;2286;51.570;7.090;2022-07-23T08:08:46;10.60;;;6.20;;
4547;SDS011;2286;51.570;7.090;2022-07-23T08:11:13;6.00;;;5.50;;
4547;SDS011;2286;51.570;7.090;2022-07-23T08:13:40;8.03;;;4.93;;
4547;SDS011;2286;51.570;7.090;2022-07-23T08:16:10;4.97;;;3.93;;
4547;SDS011;2286;51.570;7.090;2022-07-23T08:18:37;5.53;;;3.70;;
4547;SDS011;2286;51.570;7.090;2022-07-23T08:21:04;3.50;;;3.20;;
4547;SDS011;2286;51.570;7.090;2022-07-23T08:23:31;6.73;;;4.70;;
4547;SDS011;2286;51.570;7.090;2022-07-23T08:25:59;5.80;;;5.20;;
4547;SDS011;2286;51.570;7.090;2022-07-23T08:28:26;7.93;;;7.17;;
4547;SDS011;2286;51.570;7.090;2022-07-23T08:30:53;7.43;;;5.70;;
4547;SDS011;2286;51.570;7.090;2022-07-23T08:33:22;5.80;;;5.37;;
4547;SDS011;2286;51.570;7.090;2022-07-23T08:35:49;7.37;;;6.47;;
4547;SDS011;2286;51.570;7.090;2022-07-23T08:38:18;8.47;;;6.50;;
4547;SDS011;2286;51.570;7.090;2022-07-23T08:40:47;7.10;;;5.97;;
4547;SDS011;2286;51.570;7.090;2022-07-23T08:43:15;5.50;;;5.07;;
4547;SDS011;2286;51.570;7.090;2022-07-23T08:45:44;6.77;;;5.60;;
4547;SDS011;2286;51.570;7.090;2022-07-23T08:48:13;6.50;;;5.83;;
4547;SDS011;2286;51.570;7.090;2022-07-23T08:50:43;5.30;;;4.80;;
4547;SDS011;2286;51.570;7.090;2022-07-23T08:53:12;5.90;;;5.30;;
4547;SDS011;2286;51.570;7.090;2022-07-23T08:55:39;6.10;;;5.27;;
4547;SDS011;2286;51.570;7.090;2022-07-23T08:58:09;5.90;;;5.17;;
4547;SDS011;2286;51.570;7.090;2022-07-23T09:00:36;5.60;;;5.10;;
4547;SDS011;2286;51.570;7.090;2022-07-23T09:03:02;5.20;;;4.70;;
4547;SDS011;2286;51.570;7.090;2022-07-23T09:05:29;6.13;;;5.63;;
4547;SDS011;2286;51.570;7.090;2022-07-23T09:08:07;5.53;;;5.00;;
4547;SDS011;2286;51.570;7.090;2022-07-23T09:10:43;7.47;;;5.00;;
4547;SDS011;2286;51.570;7.090;2022-07-23T09:16:08;5.27;;;4.77;;
4547;SDS011;2286;51.570;7.090;2022-07-23T09:18:39;5.30;;;4.80;;
4547;SDS011;2286;51.570;7.090;2022-07-23T09:21:13;4.63;;;4.23;;
4547;SDS011;2286;51.570;7.090;2022-07-23T09:23:44;4.90;;;4.13;;
4547;SDS011;2286;51.570;7.090;2022-07-23T09:26:20;4.73;;;4.30;;
4547;SDS011;2286;51.570;7.090;2022-07-23T09:29:06;4.57;;;4.27;;
4547;SDS011;2286;51.570;7.090;2022-07-23T09:31:42;6.03;;;3.97;;
4547;SDS011;2286;51.570;7.090;2022-07-23T09:34:14;4.90;;;4.53;;
4547;SDS011;2286;51.570;7.090;2022-07-23T09:36:44;6.80;;;4.00;;
4547;SDS011;2286;51.570;7.090;2022-07-23T09:39:14;5.23;;;4.17;;
4547;SDS011;2286;51.570;7.090;2022-07-23T09:41:43;6.57;;;4.00;;
4547;SDS011;2286;51.570;7.090;2022-07-23T09:44:12;6.23;;;4.00;;
4547;SDS011;2286;51.570;7.090;2022-07-23T09:46:41;4.27;;;3.90;;
4547;SDS011;2286;51.570;7.090;2022-07-23T09:49:10;4.10;;;3.87;;
4547;SDS011;2286;51.570;7.090;2022-07-23T09:51:45;5.80;;;4.50;;
4547;SDS011;2286;51.570;7.090;2022-07-23T09:54:21;3.40;;;3.20;;
4547;SDS011;2286;51.570;7.090;2022-07-23T09:56:54;4.70;;;4.30;;
4547;SDS011;2286;51.570;7.090;2022-07-23T09:59:23;4.03;;;3.73;;
4547;SDS011;2286;51.570;7.090;2022-07-23T10:01:52;5.40;;;4.07;;
4547;SDS011;2286;51.570;7.090;2022-07-23T10:04:22;8.00;;;3.70;;
4547;SDS011;2286;51.570;7.090;2022-07-23T10:06:51;4.13;;;3.80;;
4547;SDS011;2286;51.570;7.090;2022-07-23T10:09:23;3.63;;;3.27;;
4547;SDS011;2286;51.570;7.090;2022-07-23T10:11:53;4.77;;;3.47;;
4547;SDS011;2286;51.570;7.090;2022-07-23T10:14:25;3.27;;;2.97;;
4547;SDS011;2286;51.570;7.090;2022-07-23T10:16:52;5.33;;;3.20;;
4547;SDS011;2286;51.570;7.090;2022-07-23T10:19:19;4.00;;;3.67;;
4547;SDS011;2286;51.570;7.090;2022-07-23T10:21:48;4.03;;;3.23;;
4547;SDS011;2286;51.570;7.090;2022-07-23T10:24:21;3.10;;;2.70;;
4547;SDS011;2286;51.570;7.090;2022-07-23T10:27:04;4.37;;;3.60;;
4547;SDS011;2286;51.570;7.090;2022-07-23T10:29:42;3.03;;;2.73;;
4547;SDS011;2286;51.570;7.090;2022-07-23T10:32:16;3.70;;;3.40;;
4547;SDS011;2286;51.570;7.090;2022-07-23T10:34:50;2.70;;;2.50;;
4547;SDS011;2286;51.570;7.090;2022-07-23T10:37:22;3.73;;;2.73;;
4547;SDS011;2286;51.570;7.090;2022-07-23T10:40:12;2.90;;;2.67;;
4547;SDS011;2286;51.570;7.090;2022-07-23T10:42:39;4.23;;;2.43;;
4547;SDS011;2286;51.570;7.090;2022-07-23T10:45:26;4.00;;;2.70;;
4547;SDS011;2286;51.570;7.090;2022-07-23T10:48:11;3.10;;;2.80;;
4547;SDS011;2286;51.570;7.090;2022-07-23T10:50:39;4.43;;;3.10;;
4547;SDS011;2286;51.570;7.090;2022-07-23T10:53:08;3.07;;;2.87;;
4547;SDS011;2286;51.570;7.090;2022-07-23T10:55:46;3.53;;;2.93;;
4547;SDS011;2286;51.570;7.090;2022-07-23T10:58:23;3.67;;;2.57;;
4547;SDS011;2286;51.570;7.090;2022-07-23T11:04:01;4.27;;;2.67;;
4547;SDS011;2286;51.570;7.090;2022-07-23T11:09:30;3.00;;;2.80;;
4547;SDS011;2286;51.570;7.090;2022-07-23T11:15:04;4.23;;;3.33;;
4547;SDS011;2286;51.570;7.090;2022-07-23T11:17:35;2.37;;;2.17;;
4547;SDS011;2286;51.570;7.090;2022-07-23T11:20:12;4.33;;;3.20;;
4547;SDS011;2286;51.570;7.090;2022-07-23T11:22:47;4.53;;;3.20;;
4547;SDS011;2286;51.570;7.090;2022-07-23T11:25:29;3.33;;;2.50;;
4547;SDS011;2286;51.570;7.090;2022-07-23T11:28:14;3.10;;;2.80;;
4547;SDS011;2286;51.570;7.090;2022-07-23T11:30:46;2.70;;;1.90;;
4547;SDS011;2286;51.570;7.090;2022-07-23T11:33:18;2.03;;;1.93;;
4547;SDS011;2286;51.570;7.090;2022-07-23T11:35:47;3.00;;;1.90;;
4547;SDS011;2286;51.570;7.090;2022-07-23T11:38:27;1.60;;;1.50;;
4547;SDS011;2286;51.570;7.090;2022-07-23T11:40:56;2.07;;;1.67;;
4547;SDS011;2286;51.570;7.090;2022-07-23T11:43:26;2.77;;;1.80;;
4547;SDS011;2286;51.570;7.090;2022-07-23T11:45:53;1.87;;;1.77;;
4547;SDS011;2286;51.570;7.090;2022-07-23T11:48:24;1.80;;;1.70;;
4547;SDS011;2286;51.570;7.090;2022-07-23T11:50:52;1.87;;;1.50;;
4547;SDS011;2286;51.570;7.090;2022-07-23T11:53:23;1.70;;;1.60;;
4547;SDS011;2286;51.570;7.090;2022-07-23T11:55:51;2.80;;;1.40;;
4547;SDS011;2286;51.570;7.090;2022-07-23T11:58:20;2.80;;;1.93;;
4547;SDS011;2286;51.570;7.090;2022-07-23T12:00:48;2.30;;;2.10;;
4547;SDS011;2286;51.570;7.090;2022-07-23T12:03:16;2.10;;;1.60;;
4547;SDS011;2286;51.570;7.090;2022-07-23T12:05:42;2.03;;;1.60;;
4547;SDS011;2286;51.570;7.090;2022-07-23T12:08:09;2.53;;;1.47;;
4547;SDS011;2286;51.570;7.090;2022-07-23T12:10:37;3.10;;;2.00;;
4547;SDS011;2286;51.570;7.090;2022-07-23T12:13:07;1.67;;;1.57;;
4547;SDS011;2286;51.570;7.090;2022-07-23T12:15:36;2.23;;;2.03;;
4547;SDS011;2286;51.570;7.090;2022-07-23T12:18:06;2.23;;;1.90;;
4547;SDS011;2286;51.570;7.090;2022-07-23T12:20:35;1.87;;;1.77;;
4547;SDS011;2286;51.570;7.090;2022-07-23T12:23:04;2.87;;;1.90;;
4547;SDS011;2286;51.570;7.090;2022-07-23T12:25:33;1.73;;;1.60;;
4547;SDS011;2286;51.570;7.090;2022-07-23T12:28:02;2.03;;;1.30;;
4547;SDS011;2286;51.570;7.090;2022-07-23T12:30:32;1.63;;;1.40;;
4547;SDS011;2286;51.570;7.090;2022-07-23T12:33:00;1.13;;;1.03;;
4547;SDS011;2286;51.570;7.090;2022-07-23T12:35:34;1.77;;;1.63;;
4547;SDS011;2286;51.570;7.090;2022-07-23T12:38:03;2.63;;;1.80;;
4547;SDS011;2286;51.570;7.090;2022-07-23T12:40:32;4.60;;;1.73;;
4547;SDS011;2286;51.570;7.090;2022-07-23T12:43:01;1.90;;;1.80;;
4547;SDS011;2286;51.570;7.090;2022-07-23T12:45:42;1.83;;;1.73;;
4547;SDS011;2286;51.570;7.090;2022-07-23T12:50:56;1.50;;;1.40;;
4547;SDS011;2286;51.570;7.090;2022-07-23T12:53:25;2.00;;;1.90;;
4547;SDS011;2286;51.570;7.090;2022-07-23T12:55:58;1.97;;;1.60;;
4547;SDS011;2286;51.570;7.090;2022-07-23T12:58:39;2.60;;;1.63;;
4547;SDS011;2286;51.570;7.090;2022-07-23T13:01:08;2.73;;;1.87;;
4547;SDS011;2286;51.570;7.090;2022-07-23T13:03:36;1.83;;;1.73;;
4547;SDS011;2286;51.570;7.090;2022-07-23T13:06:06;4.33;;;1.50;;
4547;SDS011;2286;51.570;7.090;2022-07-23T13:08:36;2.53;;;1.73;;
4547;SDS011;2286;51.570;7.090;2022-07-23T13:11:05;1.80;;;1.63;;
4547;SDS011;2286;51.570;7.090;2022-07-23T13:13:33;1.67;;;1.57;;
4547;SDS011;2286;51.570;7.090;2022-07-23T13:16:01;2.27;;;1.50;;
4547;SDS011;2286;51.570;7.090;2022-07-23T13:18:29;2.20;;;1.53;;
4547;SDS011;2286;51.570;7.090;2022-07-23T13:20:56;1.60;;;1.50;;
4547;SDS011;2286;51.570;7.090;2022-07-23T13:23:25;1.60;;;1.50;;
4547;SDS011;2286;51.570;7.090;2022-07-23T13:25:52;2.17;;;1.63;;
4547;SDS011;2286;51.570;7.090;2022-07-23T13:28:20;2.37;;;2.10;;
4547;SDS011;2286;51.570;7.090;2022-07-23T13:30:48;1.70;;;1.60;;
4547;SDS011;2286;51.570;7.090;2022-07-23T13:33:16;2.00;;;1.90;;
4547;SDS011;2286;51.570;7.090;2022-07-23T13:35:44;2.20;;;1.93;;
4547;SDS011;2286;51.570;7.090;2022-07-23T13:38:12;2.70;;;1.70;;
4547;SDS011;2286;51.570;7.090;2022-07-23T13:40:41;1.77;;;1.40;;
4547;SDS011;2286;51.570;7.090;2022-07-23T13:43:10;2.17;;;1.80;;
4547;SDS011;2286;51.570;7.090;2022-07-23T13:45:40;1.57;;;1.47;;
4547;SDS011;2286;51.570;7.090;2022-07-23T13:48:07;1.80;;;1.70;;
4547;SDS011;2286;51.570;7.090;2022-07-23T13:50:35;1.80;;;1.70;;
4547;SDS011;2286;51.570;7.090;2022-07-23T13:53:02;2.23;;;1.93;;
4547;SDS011;2286;51.570;7.090;2022-07-23T13:55:30;2.03;;;1.60;;
4547;SDS011;2286;51.570;7.090;2022-07-23T13:57:59;2.30;;;1.90;;
4547;SDS011;2286;51.570;7.090;2022-07-23T14:00:26;2.80;;;1.70;;
4547;SDS011;2286;51.570;7.090;2022-07-23T14:02:55;1.83;;;1.73;;
4547;SDS011;2286;51.570;7.090;2022-07-23T14:05:23;3.50;;;1.90;;
4547;SDS011;2286;51.570;7.090;2022-07-23T14:07:50;1.97;;;1.87;;
4547;SDS011;2286;51.570;7.090;2022-07-23T14:10:18;1.90;;;1.80;;
4547;SDS011;2286;51.570;7.090;2022-07-23T14:12:46;4.53;;;2.37;;
4547;SDS011;2286;51.570;7.090;2022-07-23T14:15:16;2.13;;;2.00;;
4547;SDS011;2286;51.570;7.090;2022-07-23T14:17:43;1.70;;;1.60;;
4547;SDS011;2286;51.570;7.090;2022-07-23T14:20:12;4.90;;;2.07;;
4547;SDS011;2286;51.570;7.090;2022-07-23T14:22:42;1.80;;;1.70;;
4547;SDS011;2286;51.570;7.090;2022-07-23T14:25:09;1.70;;;1.60;;
4547;SDS011;2286;51.570;7.090;2022-07-23T14:27:36;3.07;;;2.87;;
4547;SDS011;2286;51.570;7.090;2022-07-23T14:30:05;3.20;;;3.00;;
4547;SDS011;2286;51.570;7.090;2022-07-23T14:32:34;2.40;;;2.23;;
4547;SDS011;2286;51.570;7.090;2022-07-23T14:35:02;2.17;;;2.07;;
4547;SDS011;2286;51.570;7.090;2022-07-23T14:37:29;4.60;;;2.23;;
4547;SDS011;2286;51.570;7.090;2022-07-23T14:39:56;4.03;;;2.23;;
4547;SDS011;2286;51.570;7.090;2022-07-23T14:42:24;2.97;;;2.20;;
4547;SDS011;2286;51.570;7.090;2022-07-23T14:44:52;2.97;;;2.40;;
4547;SDS011;2286;51.570;7.090;2022-07-23T14:47:18;2.70;;;2.43;;
4547;SDS011;2286;51.570;7.090;2022-07-23T14:49:47;2.60;;;2.13;;
4547;SDS011;2286;51.570;7.090;2022-07-23T14:52:14;2.17;;;1.93;;
4547;SDS011;2286;51.570;7.090;2022-07-23T14:54:41;2.70;;;2.50;;
4547;SDS011;2286;51.570;7.090;2022-07-23T14:57:08;2.60;;;2.20;;
4547;SDS011;2286;51.570;7.090;2022-07-23T14:59:35;2.10;;;1.90;;
4547;SDS011;2286;51.570;7.090;2022-07-23T15:02:02;2.93;;;2.00;;
4547;SDS011;2286;51.570;7.090;2022-07-23T15:04:29;2.50;;;2.30;;
4547;SDS011;2286;51.570;7.090;2022-07-23T15:06:57;2.63;;;2.00;;
4547;SDS011;2286;51.570;7.090;2022-07-23T15:09:24;2.40;;;2.20;;
4547;SDS011;2286;51.570;7.090;2022-07-23T15:11:51;3.83;;;2.57;;
4547;SDS011;2286;51.570;7.090;2022-07-23T15:14:18;1.97;;;1.87;;
4547;SDS011;2286;51.570;7.090;2022-07-23T15:16:45;2.57;;;2.37;;
4547;SDS011;2286;51.570;7.090;2022-07-23T15:19:12;2.00;;;1.90;;
4547;SDS011;2286;51.570;7.090;2022-07-23T15:21:39;3.20;;;2.03;;
4547;SDS011;2286;51.570;7.090;2022-07-23T15:24:08;2.23;;;2.03;;
4547;SDS011;2286;51.570;7.090;2022-07-23T15:26:35;2.27;;;2.17;;
4547;SDS011;2286;51.570;7.090;2022-07-23T15:29:02;3.90;;;2.10;;